Terminal Aerodrome Forecast
Issued by NWS

Home | Current Version | Previous Version | Text Only | Print | Product List | Glossary On
Versions: 1 2 3 4 5 6 7 8 9 10 11 12 13 14 15 16 17 18 19 20 21
074
FTUS41 KPHI 310544
TAFPNE
TAF
KPNE 310544Z 3106/0106 10005KT P6SM BKN150
     FM310800 14006KT 4SM BR OVC015
     FM311100 VRB02KT 2SM BR OVC007
     FM311300 14003KT 4SM BR OVC015
     FM311500 20006KT P6SM BKN035
     FM311800 23006KT P6SM BKN050
     FM010000 16005KT P6SM SCT050 BKN100=

USA.gov is the U.S. government's official web portal to all federal, state and local government web resources and services.